createdAt,value
2019-01-09T00:01:55.484Z,11.23
2019-01-09T00:04:26.760Z,12.87
2019-01-09T00:06:58.129Z,14.20
2019-01-09T00:09:29.910Z,10.33
2019-01-09T00:12:01.635Z,10.87
2019-01-09T00:14:32.891Z,14.33
2019-01-09T00:17:04.579Z,12.17
2019-01-09T00:19:36.124Z,10.80
2019-01-09T00:22:08.959Z,12.70
2019-01-09T00:24:41.692Z,8.90
2019-01-09T00:27:13.173Z,9.23
2019-01-09T00:29:44.485Z,10.37
2019-01-09T00:32:17.124Z,9.73
2019-01-09T00:34:48.570Z,9.53
2019-01-09T00:37:20.616Z,8.53
2019-01-09T00:39:51.857Z,7.63
2019-01-09T00:42:23.158Z,11.23
2019-01-09T00:44:54.673Z,11.30
2019-01-09T00:47:26.063Z,8.47
2019-01-09T00:49:57.401Z,10.77
2019-01-09T00:52:28.712Z,8.67
2019-01-09T00:55:00.390Z,8.83
2019-01-09T00:57:32.941Z,6.13
2019-01-09T01:00:04.892Z,8.20
2019-01-09T01:03:10.229Z,9.57
2019-01-09T01:06:18.073Z,7.73
2019-01-09T01:09:32.981Z,7.83
2019-01-09T01:12:41.340Z,7.47
2019-01-09T01:15:42.105Z,9.50
2019-01-09T01:18:50.500Z,10.43
2019-01-09T01:21:38.433Z,6.13
2019-01-09T01:25:13.070Z,9.23
2019-01-09T01:28:19.348Z,8.07
2019-01-09T01:31:25.755Z,8.43
2019-01-09T01:34:07.102Z,7.47
2019-01-09T01:37:34.140Z,9.90
2019-01-09T01:40:33.925Z,9.70
2019-01-09T01:43:53.623Z,7.57
2019-01-09T01:47:01.054Z,6.97
2019-01-09T01:49:57.169Z,9.83
2019-01-09T01:52:59.057Z,7.57
2019-01-09T01:56:10.459Z,7.47
2019-01-09T01:59:16.884Z,8.33
2019-01-09T02:02:30.359Z,6.03
2019-01-09T02:05:15.593Z,7.07
2019-01-09T02:08:14.656Z,7.77
2019-01-09T02:11:32.053Z,6.03
2019-01-09T02:14:14.486Z,6.20
2019-01-09T02:17:31.669Z,5.63
2019-01-09T02:20:34.177Z,4.20
2019-01-09T02:23:46.680Z,8.23
2019-01-09T02:26:38.350Z,6.90
2019-01-09T02:29:22.894Z,4.60
2019-01-09T02:32:31.640Z,7.47
2019-01-09T02:35:03.165Z,5.87
2019-01-09T02:37:34.545Z,5.47
2019-01-09T02:40:06.253Z,5.47
2019-01-09T02:42:37.689Z,5.67
2019-01-09T02:45:08.913Z,7.10
2019-01-09T02:47:41.454Z,5.13
2019-01-09T02:50:13.048Z,6.43
2019-01-09T02:52:44.268Z,7.03
2019-01-09T02:55:15.629Z,4.83
2019-01-09T02:57:56.235Z,5.43
2019-01-09T03:00:20.953Z,6.17
2019-01-09T03:02:52.315Z,5.70
2019-01-09T03:05:23.711Z,6.00
2019-01-09T03:07:55.148Z,7.47
2019-01-09T03:10:26.509Z,6.43
2019-01-09T03:12:57.943Z,5.67
2019-01-09T03:15:29.277Z,8.20
2019-01-09T03:18:00.627Z,5.00
2019-01-09T03:20:31.961Z,7.10
2019-01-09T03:23:03.219Z,5.80
2019-01-09T03:25:34.544Z,6.93
2019-01-09T03:28:05.927Z,5.47
2019-01-09T03:30:37.395Z,6.27
2019-01-09T03:33:09.604Z,6.63
2019-01-09T03:35:42.873Z,6.70
2019-01-09T03:38:14.475Z,7.53
2019-01-09T03:40:46.176Z,5.30
2019-01-09T03:43:17.705Z,4.70
2019-01-09T03:45:49.083Z,5.43
2019-01-09T03:48:20.750Z,5.43
2019-01-09T03:50:55.986Z,7.27
2019-01-09T03:53:27.289Z,5.60
2019-01-09T03:55:58.568Z,5.60
2019-01-09T03:58:30.242Z,6.00
2019-01-09T04:01:01.668Z,6.27
2019-01-09T04:03:33.862Z,7.50
2019-01-09T04:06:05.098Z,5.20
2019-01-09T04:08:36.348Z,7.03
2019-01-09T04:11:08.346Z,6.60
2019-01-09T04:13:40.245Z,4.63
2019-01-09T04:16:12.394Z,5.73
2019-01-09T04:18:43.737Z,6.07
2019-01-09T04:21:14.999Z,8.50
2019-01-09T04:23:46.228Z,5.80
2019-01-09T04:26:17.534Z,7.33
2019-01-09T04:28:48.747Z,6.00
2019-01-09T04:31:20.320Z,5.90
2019-01-09T04:33:51.780Z,6.63
2019-01-09T04:36:23.353Z,7.50
2019-01-09T04:38:54.602Z,8.00
2019-01-09T04:41:25.916Z,7.07
2019-01-09T04:43:57.149Z,8.90
2019-01-09T04:46:28.622Z,7.60
2019-01-09T04:48:59.896Z,8.13
2019-01-09T04:51:31.380Z,8.73
2019-01-09T04:54:03.635Z,10.30
2019-01-09T04:56:35.034Z,8.53
2019-01-09T04:59:06.372Z,9.67
2019-01-09T05:01:37.650Z,9.93
2019-01-09T05:04:08.929Z,8.73
2019-01-09T05:06:40.384Z,8.43
2019-01-09T05:09:11.587Z,7.23
2019-01-09T05:11:45.949Z,12.07
2019-01-09T05:14:17.196Z,10.07
2019-01-09T05:16:48.483Z,11.30
2019-01-09T05:19:19.746Z,8.40
2019-01-09T05:21:51.112Z,11.63
2019-01-09T05:24:22.473Z,8.93
2019-01-09T05:26:53.787Z,9.33
2019-01-09T05:29:25.211Z,9.77
2019-01-09T05:31:56.493Z,9.40
2019-01-09T05:34:27.696Z,9.50
2019-01-09T05:36:59.437Z,9.27
2019-01-09T05:39:39.438Z,9.67
2019-01-09T05:42:03.718Z,11.53
2019-01-09T05:44:35.028Z,13.93
2019-01-09T05:47:06.610Z,10.77
2019-01-09T05:49:37.911Z,10.30
2019-01-09T05:52:09.586Z,13.70
2019-01-09T05:54:41.603Z,12.33
2019-01-09T05:57:13.053Z,22.67
2019-01-09T05:59:44.757Z,16.10
2019-01-09T06:02:16.041Z,16.67
2019-01-09T06:04:47.467Z,18.47
2019-01-09T06:07:19.273Z,15.60
2019-01-09T06:09:50.646Z,17.93
2019-01-09T06:12:21.985Z,16.87
2019-01-09T06:14:53.349Z,16.93
2019-01-09T06:17:24.777Z,20.17
2019-01-09T06:19:55.968Z,21.53
2019-01-09T06:22:27.225Z,23.90
2019-01-09T06:24:58.494Z,21.77
2019-01-09T06:27:29.885Z,21.73
2019-01-09T06:30:01.375Z,23.27
2019-01-09T06:32:32.936Z,20.90
2019-01-09T06:35:03.414Z,19.30
2019-01-09T06:37:37.746Z,24.20
2019-01-09T06:40:08.965Z,21.50
2019-01-09T06:42:40.601Z,19.40
2019-01-09T06:45:12.813Z,18.23
2019-01-09T06:47:44.203Z,19.67
2019-01-09T06:50:17.536Z,25.53
2019-01-09T06:52:48.845Z,25.43
2019-01-09T06:55:20.364Z,20.63
2019-01-09T07:00:20.841Z,26.50
2019-01-09T07:02:52.034Z,21.23
2019-01-09T07:05:23.268Z,26.93
2019-01-09T07:07:54.714Z,24.60
2019-01-09T07:10:25.989Z,27.83
2019-01-09T07:12:57.145Z,21.10
2019-01-09T07:15:28.464Z,37.07
2019-01-09T07:17:59.801Z,35.63
2019-01-09T07:20:31.632Z,33.23
2019-01-09T07:23:03.005Z,37.87
2019-01-09T07:25:34.397Z,39.37
2019-01-09T07:28:06.241Z,31.97
2019-01-09T07:30:37.565Z,37.87
2019-01-09T07:33:12.834Z,41.23
2019-01-09T07:35:45.721Z,44.17
2019-01-09T07:38:18.453Z,55.53
2019-01-09T07:40:49.708Z,55.07
2019-01-09T07:43:22.468Z,57.87
2019-01-09T07:45:53.705Z,62.80
2019-01-09T07:48:24.985Z,62.73
2019-01-09T07:50:56.338Z,62.07
2019-01-09T07:53:27.686Z,56.97
2019-01-09T07:55:59.371Z,79.30
2019-01-09T07:58:30.919Z,71.43
2019-01-09T08:01:02.581Z,77.13
2019-01-09T08:03:33.854Z,85.37
2019-01-09T08:06:05.206Z,70.97
2019-01-09T08:08:36.578Z,73.30
2019-01-09T08:11:07.857Z,85.50
2019-01-09T08:13:39.301Z,68.83
2019-01-09T08:16:11.473Z,70.63
2019-01-09T08:18:43.321Z,77.73
2019-01-09T08:21:14.600Z,74.13
2019-01-09T08:23:46.278Z,74.83
2019-01-09T08:26:17.754Z,69.30
2019-01-09T08:28:50.170Z,66.07
2019-01-09T08:31:21.791Z,75.73
2019-01-09T08:33:53.280Z,64.63
2019-01-09T08:36:25.238Z,67.43
2019-01-09T08:38:56.670Z,66.87
2019-01-09T08:41:28.339Z,65.33
2019-01-09T08:43:59.600Z,63.53
2019-01-09T08:46:30.960Z,56.03
2019-01-09T08:49:02.194Z,60.30
2019-01-09T08:51:33.531Z,65.03
2019-01-09T08:54:04.933Z,60.20
2019-01-09T08:56:37.321Z,60.77
2019-01-09T08:59:08.627Z,60.80
2019-01-09T09:01:40.202Z,56.73
2019-01-09T09:04:11.458Z,62.10
2019-01-09T09:06:43.064Z,58.00
2019-01-09T09:09:17.311Z,62.40
2019-01-09T09:11:48.690Z,60.27
2019-01-09T09:14:19.941Z,48.37
2019-01-09T09:16:51.226Z,58.57
2019-01-09T09:19:23.009Z,47.17
2019-01-09T09:21:54.307Z,51.73
2019-01-09T09:24:25.576Z,54.57
2019-01-09T09:26:56.936Z,52.40
2019-01-09T09:29:28.253Z,55.80
2019-01-09T09:31:59.943Z,52.40
2019-01-09T09:34:31.596Z,50.23
2019-01-09T09:37:04.426Z,58.57
2019-01-09T09:39:37.844Z,53.63
2019-01-09T09:42:09.063Z,56.23
2019-01-09T09:44:40.433Z,57.20
2019-01-09T09:47:12.258Z,56.63
2019-01-09T09:49:44.069Z,59.30
2019-01-09T09:52:15.342Z,62.97
2019-01-09T09:54:46.719Z,63.30
2019-01-09T09:57:18.110Z,63.60
2019-01-09T09:59:49.983Z,70.83
2019-01-09T10:02:21.646Z,61.77
2019-01-09T10:04:52.941Z,74.57
2019-01-09T10:07:24.265Z,72.27
2019-01-09T10:09:55.760Z,76.60
2019-01-09T10:12:27.067Z,78.43
2019-01-09T10:14:58.756Z,83.40
2019-01-09T10:17:30.764Z,81.17
2019-01-09T10:20:02.438Z,79.67
2019-01-09T10:22:34.582Z,86.10
2019-01-09T10:25:06.120Z,80.23
2019-01-09T10:27:38.620Z,93.20
2019-01-09T10:30:13.936Z,95.07
2019-01-09T10:32:45.352Z,93.93
2019-01-09T10:35:16.668Z,101.97
2019-01-09T10:37:48.484Z,112.67
2019-01-09T10:40:20.627Z,112.47
2019-01-09T10:42:52.435Z,116.57
2019-01-09T10:45:23.793Z,112.23
2019-01-09T10:47:56.913Z,114.53
2019-01-09T10:50:28.377Z,117.60
2019-01-09T10:52:59.668Z,115.17
2019-01-09T10:55:31.155Z,111.30
2019-01-09T10:58:02.672Z,109.90
2019-01-09T11:00:34.395Z,109.07
2019-01-09T11:03:05.832Z,121.43
2019-01-09T11:05:38.327Z,110.13
2019-01-09T11:08:10.020Z,112.03
2019-01-09T11:10:42.868Z,120.83
2019-01-09T11:13:15.000Z,117.63
2019-01-09T11:15:46.310Z,120.43
2019-01-09T11:18:18.392Z,140.13
2019-01-09T11:20:50.049Z,115.83
2019-01-09T11:23:22.940Z,123.03
2019-01-09T11:25:54.663Z,125.57
2019-01-09T11:28:26.104Z,126.80
2019-01-09T11:30:57.390Z,126.43
2019-01-09T11:33:29.361Z,133.47
2019-01-09T11:36:01.825Z,127.67
2019-01-09T11:38:34.574Z,120.70
2019-01-09T11:41:06.442Z,125.77
2019-01-09T11:43:39.410Z,117.00
2019-01-09T11:46:10.699Z,134.40
2019-01-09T11:48:42.026Z,131.77
2019-01-09T11:51:13.766Z,135.77
2019-01-09T11:53:45.147Z,129.17
2019-01-09T11:56:16.417Z,130.33
2019-01-09T11:58:47.787Z,132.83
2019-01-09T12:01:19.155Z,124.77
2019-01-09T12:03:51.326Z,121.97
2019-01-09T12:06:22.526Z,131.23
2019-01-09T12:08:54.001Z,137.70
2019-01-09T12:11:26.681Z,135.40
2019-01-09T12:13:58.025Z,133.23
2019-01-09T12:16:29.346Z,135.93
2019-01-09T12:19:00.791Z,128.53
2019-01-09T12:21:32.057Z,138.43
2019-01-09T12:24:03.665Z,143.63
2019-01-09T12:26:35.321Z,153.20
2019-01-09T12:29:07.221Z,146.07
2019-01-09T12:31:39.082Z,158.17
2019-01-09T12:34:10.566Z,146.50
2019-01-09T12:36:43.367Z,146.93
2019-01-09T12:39:14.846Z,153.40
2019-01-09T12:41:46.468Z,143.10
2019-01-09T12:44:17.845Z,144.40
2019-01-09T12:46:49.526Z,136.97
2019-01-09T12:49:20.889Z,148.77
2019-01-09T12:51:52.137Z,140.37
2019-01-09T12:54:23.441Z,144.97
2019-01-09T12:56:55.101Z,151.30
2019-01-09T12:59:26.369Z,132.90
2019-01-09T13:01:57.823Z,132.20
2019-01-09T13:04:31.345Z,131.80
2019-01-09T13:07:02.798Z,127.50
2019-01-09T13:09:34.294Z,129.23
2019-01-09T13:12:05.784Z,123.67
2019-01-09T13:14:37.592Z,132.23
2019-01-09T13:17:12.043Z,139.30
2019-01-09T13:19:43.461Z,131.63
2019-01-09T13:22:15.034Z,141.73
2019-01-09T13:24:46.662Z,141.87
2019-01-09T13:27:19.156Z,136.13
2019-01-09T13:29:50.640Z,135.80
2019-01-09T13:32:22.239Z,133.60
2019-01-09T13:34:53.744Z,141.13
2019-01-09T13:37:25.022Z,136.07
2019-01-09T13:39:56.458Z,150.97
2019-01-09T13:42:27.829Z,141.77
2019-01-09T13:44:59.210Z,141.97
2019-01-09T13:47:31.053Z,150.10
2019-01-09T13:50:02.403Z,143.50
2019-01-09T13:52:33.650Z,141.47
2019-01-09T13:55:06.300Z,153.00
2019-01-09T13:57:37.769Z,146.23
2019-01-09T14:00:12.441Z,139.13
2019-01-09T14:02:45.170Z,133.53
2019-01-09T14:05:16.709Z,148.03
2019-01-09T14:07:48.304Z,140.33
2019-01-09T14:10:26.303Z,142.83
2019-01-09T14:12:59.672Z,133.33
2019-01-09T14:15:31.831Z,142.70
2019-01-09T14:18:03.321Z,183.30
2019-01-09T14:20:34.994Z,145.53
2019-01-09T14:23:06.442Z,145.03
2019-01-09T14:25:38.655Z,150.27
2019-01-09T14:28:11.699Z,149.63
2019-01-09T14:30:43.074Z,146.00
2019-01-09T14:33:14.317Z,133.37
2019-01-09T14:35:45.527Z,150.67
2019-01-09T14:38:17.294Z,153.90
2019-01-09T14:40:48.714Z,160.70
2019-01-09T14:43:20.091Z,156.83
2019-01-09T14:45:51.310Z,151.40
2019-01-09T14:48:22.884Z,146.50
2019-01-09T14:50:54.324Z,145.40
2019-01-09T14:53:26.186Z,151.80
2019-01-09T14:55:57.441Z,150.70
2019-01-09T14:58:28.827Z,150.23
2019-01-09T15:01:00.309Z,147.10
2019-01-09T15:03:31.820Z,148.60
2019-01-09T15:06:03.149Z,151.87
2019-01-09T15:08:34.862Z,146.13
2019-01-09T15:11:08.447Z,139.33
2019-01-09T15:13:49.952Z,150.67
2019-01-09T15:16:21.310Z,152.03
2019-01-09T15:18:53.047Z,151.77
2019-01-09T15:21:24.573Z,150.23
2019-01-09T15:23:55.827Z,171.60
2019-01-09T15:26:27.097Z,155.70
2019-01-09T15:28:58.625Z,149.57
2019-01-09T15:31:29.987Z,155.67
2019-01-09T15:34:03.052Z,156.80
2019-01-09T15:36:34.905Z,168.53
2019-01-09T15:39:08.347Z,167.43
2019-01-09T15:41:39.806Z,167.47
2019-01-09T15:44:11.176Z,163.67
2019-01-09T15:46:43.850Z,167.73
2019-01-09T15:49:15.738Z,161.00
2019-01-09T15:51:47.045Z,161.87
2019-01-09T15:54:18.623Z,166.93
2019-01-09T15:56:51.165Z,166.03
2019-01-09T15:59:22.763Z,192.77
2019-01-09T16:01:54.031Z,177.57
2019-01-09T16:04:25.583Z,174.80
2019-01-09T16:06:56.969Z,175.00
2019-01-09T16:09:28.446Z,180.30
2019-01-09T16:11:59.884Z,177.93
2019-01-09T16:14:31.662Z,168.13
2019-01-09T16:17:02.942Z,170.20
2019-01-09T16:19:34.220Z,174.47
2019-01-09T16:22:09.564Z,168.83
2019-01-09T16:24:41.104Z,171.47
2019-01-09T16:27:12.352Z,164.07
2019-01-09T16:29:44.694Z,176.10
2019-01-09T16:32:16.009Z,173.73
2019-01-09T16:34:49.501Z,175.77
2019-01-09T16:37:20.804Z,176.33
2019-01-09T16:39:53.113Z,176.83
2019-01-09T16:42:26.410Z,171.97
2019-01-09T16:44:58.517Z,163.03
2019-01-09T16:47:29.815Z,160.67
2019-01-09T16:50:01.365Z,171.77
2019-01-09T16:52:33.304Z,174.17
2019-01-09T16:55:05.187Z,178.37
2019-01-09T16:57:38.542Z,156.73
2019-01-09T17:00:15.662Z,161.43
2019-01-09T17:02:48.487Z,139.77
2019-01-09T17:05:19.803Z,149.67
2019-01-09T17:07:57.218Z,143.30
2019-01-09T17:10:34.300Z,133.03
2019-01-09T17:13:06.292Z,133.77
2019-01-09T17:15:37.590Z,134.90
2019-01-09T17:18:09.025Z,128.67
2019-01-09T17:20:41.319Z,134.63
2019-01-09T17:23:13.122Z,129.43
2019-01-09T17:25:44.790Z,132.43
2019-01-09T17:28:16.196Z,134.63
2019-01-09T17:30:48.546Z,134.07
2019-01-09T17:33:20.342Z,129.10
2019-01-09T17:35:51.789Z,140.37
2019-01-09T17:38:23.557Z,143.03
2019-01-09T17:40:54.907Z,143.70
2019-01-09T17:43:28.256Z,144.90
2019-01-09T17:45:59.657Z,138.90
2019-01-09T17:48:31.166Z,149.00
2019-01-09T17:51:02.509Z,149.67
2019-01-09T17:53:36.308Z,150.13
2019-01-09T17:56:07.663Z,151.67
2019-01-09T17:58:39.227Z,137.17
2019-01-09T18:01:11.107Z,153.50
2019-01-09T18:03:42.614Z,149.87
2019-01-09T18:06:13.871Z,145.90
2019-01-09T18:08:45.140Z,151.77
2019-01-09T18:11:16.541Z,145.43
2019-01-09T18:13:47.914Z,147.43
2019-01-09T18:16:19.281Z,153.13
2019-01-09T18:18:50.733Z,149.33
2019-01-09T18:21:21.941Z,152.43
2019-01-09T18:23:53.757Z,163.57
2019-01-09T18:26:25.860Z,159.17
2019-01-09T18:28:57.263Z,150.43
2019-01-09T18:31:59.553Z,152.27
2019-01-09T18:34:58.090Z,145.40
2019-01-09T18:37:54.405Z,151.60
2019-01-09T18:41:12.492Z,153.30
2019-01-09T18:44:09.780Z,143.87
2019-01-09T18:47:19.542Z,149.23
2019-01-09T18:50:13.281Z,153.23
2019-01-09T18:52:49.056Z,148.43
2019-01-09T18:55:24.026Z,157.77
2019-01-09T18:57:55.334Z,166.87
2019-01-09T19:00:26.607Z,152.03
2019-01-09T19:02:58.080Z,160.40
2019-01-09T19:05:29.382Z,171.03
2019-01-09T19:08:02.038Z,163.70
2019-01-09T19:10:33.433Z,157.77
2019-01-09T19:13:04.777Z,158.70
2019-01-09T19:15:36.213Z,154.70
2019-01-09T19:18:08.830Z,149.40
2019-01-09T19:20:40.774Z,151.07
2019-01-09T19:23:12.043Z,150.67
2019-01-09T19:25:43.513Z,157.83
2019-01-09T19:28:14.844Z,149.13
2019-01-09T19:30:46.521Z,151.33
2019-01-09T19:33:18.520Z,167.93
2019-01-09T19:35:50.220Z,166.53
2019-01-09T19:38:21.597Z,161.17
2019-01-09T19:40:52.977Z,145.77
2019-01-09T19:43:24.214Z,147.43
2019-01-09T19:45:55.459Z,163.87
2019-01-09T19:48:26.774Z,165.13
2019-01-09T19:50:58.335Z,162.67
2019-01-09T19:53:30.042Z,155.37
2019-01-09T19:56:01.409Z,157.23
2019-01-09T19:58:33.641Z,158.53
2019-01-09T20:01:05.007Z,156.00
2019-01-09T20:03:36.478Z,162.80
2019-01-09T20:06:07.858Z,152.20
2019-01-09T20:08:39.529Z,163.03
2019-01-09T20:11:10.878Z,162.33
2019-01-09T20:13:42.401Z,160.90
2019-01-09T20:16:15.297Z,155.40
2019-01-09T20:18:46.713Z,153.30
2019-01-09T20:21:18.151Z,157.97
2019-01-09T20:23:49.609Z,155.07
2019-01-09T20:26:20.974Z,157.37
2019-01-09T20:28:52.296Z,166.77
2019-01-09T20:31:23.648Z,170.80
2019-01-09T20:33:54.967Z,158.20
2019-01-09T20:36:26.226Z,158.53
2019-01-09T20:38:57.519Z,160.00
2019-01-09T20:41:35.167Z,167.97
2019-01-09T20:44:01.834Z,156.17
2019-01-09T20:46:33.485Z,160.83
2019-01-09T20:49:04.905Z,170.70
2019-01-09T20:51:36.364Z,157.80
2019-01-09T20:54:09.404Z,154.20
2019-01-09T20:56:40.991Z,166.90
2019-01-09T20:59:12.455Z,158.00
2019-01-09T21:01:43.753Z,156.83
2019-01-09T21:04:15.402Z,162.40
2019-01-09T21:06:46.830Z,152.10
2019-01-09T21:09:19.135Z,171.97
2019-01-09T21:11:51.478Z,155.90
2019-01-09T21:14:22.726Z,148.40
2019-01-09T21:16:57.013Z,155.70
2019-01-09T21:19:29.802Z,155.47
2019-01-09T21:22:02.972Z,164.67
2019-01-09T21:24:34.492Z,154.23
2019-01-09T21:27:07.811Z,156.07
2019-01-09T21:29:39.313Z,147.93
2019-01-09T21:32:11.079Z,144.73
2019-01-09T21:34:42.532Z,155.83
2019-01-09T21:37:14.770Z,160.73
2019-01-09T21:39:48.491Z,150.67
2019-01-09T21:42:19.823Z,151.47
2019-01-09T21:44:51.529Z,143.57
2019-01-09T21:47:23.018Z,150.37
2019-01-09T21:49:54.513Z,153.70
2019-01-09T21:52:25.797Z,143.50
2019-01-09T21:54:57.106Z,147.60
2019-01-09T21:57:28.813Z,145.10
2019-01-09T22:00:01.059Z,151.73
2019-01-09T22:02:33.511Z,150.93
2019-01-09T22:05:05.456Z,139.10
2019-01-09T22:07:37.618Z,136.50
2019-01-09T22:10:18.066Z,149.50
2019-01-09T22:12:49.748Z,145.53
2019-01-09T22:15:24.188Z,146.90
2019-01-09T22:17:55.661Z,142.67
2019-01-09T22:20:27.277Z,142.30
2019-01-09T22:22:58.728Z,145.17
2019-01-09T22:25:30.996Z,144.37
2019-01-09T22:28:02.758Z,152.53
2019-01-09T22:30:34.220Z,146.00
2019-01-09T22:33:05.471Z,146.43
2019-01-09T22:35:41.677Z,142.77
2019-01-09T22:38:10.390Z,136.03
2019-01-09T22:40:41.770Z,139.93
2019-01-09T22:43:16.029Z,134.57
2019-01-09T22:45:48.725Z,140.57
2019-01-09T22:48:20.512Z,131.63
2019-01-09T22:50:52.142Z,131.93
2019-01-09T22:53:23.519Z,131.97
2019-01-09T22:55:54.949Z,135.07
2019-01-09T22:58:29.306Z,129.03
2019-01-09T23:01:17.503Z,125.27
2019-01-09T23:03:49.500Z,128.57
2019-01-09T23:06:24.589Z,120.07
2019-01-09T23:08:56.347Z,122.13
2019-01-09T23:11:29.183Z,120.03
2019-01-09T23:14:02.177Z,121.23
2019-01-09T23:16:36.950Z,108.90
2019-01-09T23:19:08.656Z,104.97
2019-01-09T23:21:42.560Z,109.17
2019-01-09T23:24:14.245Z,108.90
2019-01-09T23:26:45.598Z,110.10
2019-01-09T23:29:16.925Z,107.40
2019-01-09T23:31:48.369Z,105.53
2019-01-09T23:34:19.720Z,101.87
2019-01-09T23:36:52.925Z,108.63
2019-01-09T23:39:24.197Z,95.93
2019-01-09T23:41:55.460Z,106.80
2019-01-09T23:44:26.643Z,104.67
2019-01-09T23:47:00.606Z,99.57
2019-01-09T23:49:41.937Z,100.57
2019-01-09T23:52:17.055Z,101.33
2019-01-09T23:54:49.418Z,101.30
2019-01-09T23:57:21.331Z,104.17
2019-01-09T23:59:54.048Z,105.17
